KBUY

Burlington-Alamance Regional Airport

Burlington, North Carolina, USA
METAR KBUY 181454Z AUTO 30007KT 10SM CLR M05/M13 A3029 RMK AO2 SLP265 T10501133 51010
Observed Flight Rules
Jan-18 @ 14:54 UTC (33 minutes ago) Visual Flight Rules
Wind Visibility Clouds
300° at 7 knots 10 miles
  • Clear skies
Temperatures Readings
Current -5°C / 23°F
Dewpoint -13°C / 9°F
Humidity 54%
Altimeter 30.29" Hg
Pressure 1026.5 hPa
Elevation 180
METAR KBUY 181454Z AUTO 30007KT 10SM CLR M05/M13 A3029 RMK AO2 SLP265 T10501133 51010
Observed Flight Rules
Jan-18 @ 14:54 UTC
(33 minutes ago)
VFR
Wind Visibility
300° at 7 knots 10 miles
Clouds
  • Clear skies
Temperature Dewpoint
-5°C / 23°F -13°C / 9°F
Humidity Altimeter Pressure
54% 30.29" Hg 1026.5 hPa